Date,TemperatureHighF,TemperatureAvgF,TemperatureLowF,DewpointHighF,DewpointAvgF,DewpointLowF,HumidityHigh,HumidityAvg,HumidityLow,PressureMaxIn,PressureMinIn,WindSpeedMaxMPH,WindSpeedAvgMPH,GustSpeedMaxMPH,PrecipitationSumIn
2013-12-1,38,36,33,36,34,32,100,95,92,30.21,29.65,5,1,11,1.53
2013-12-2,39,26,12,36,23,5,94,87,71,30.17,29.55,5,2,13,0.18
2013-12-3,15,11,7,5,4,1,88,73,55,30.49,30.17,5,2,10,0.00
2013-12-4,14,4,-1,5,0,-4,90,82,58,30.56,30.48,2,0,5,0.00
2013-12-5,9,2,-3,2,-3,-8,87,81,69,30.65,30.52,1,0,5,0.00
2013-12-6,0,-7,-14,-8,-13,-18,84,73,54,30.77,30.65,4,1,9,0.00
2013-12-7,-2,-13,-19,-11,-18,-23,92,79,65,30.76,30.59,2,0,6,0.00
2013-12-8,5,-4,-14,0,-8,-19,95,82,74,30.74,30.65,1,0,4,0.00
2013-12-9,11,7,3,8,4,-1,89,86,82,30.72,30.48,1,0,5,0.00
2013-12-10,22,16,10,19,14,8,100,90,87,30.54,30.42,2,0,7,0.00
2013-12-11,29,24,19,25,22,17,93,90,86,30.55,30.39,5,1,10,0.00
2013-12-12,32,29,26,28,26,23,94,88,82,30.40,30.13,4,1,8,0.04
2013-12-13,34,32,27,33,30,25,100,92,88,30.39,30.13,4,1,18,0.00
2013-12-14,39,35,33,36,33,31,97,92,85,30.41,30.25,6,1,10,0.25
2013-12-15,40,37,34,35,33,31,99,86,78,30.28,30.16,5,2,10,0.33
2013-12-16,42,37,29,34,31,27,93,80,68,30.38,30.18,7,2,13,0.30
2013-12-17,41,34,29,32,29,26,94,81,60,30.36,29.91,4,1,10,0.04
2013-12-18,41,33,16,32,28,13,100,83,64,30.03,29.77,5,1,14,0.02
2013-12-19,18,10,4,13,6,0,91,85,74,30.36,30.03,0,0,0,0.00
2013-12-20,22,18,12,20,16,9,92,91,88,30.28,29.78,0,0,0,0.00
2013-12-21,23,18,13,21,16,10,93,91,88,30.19,29.81,0,0,0,0.00
2013-12-22,31,25,21,28,23,20,95,92,86,30.37,30.17,0,0,1,0.00
2013-12-23,37,32,27,36,30,26,97,95,92,30.35,29.96,5,1,11,0.01
2013-12-24,34,33,29,32,28,24,93,84,77,30.54,30.13,5,2,11,0.00
2013-12-25,32,26,19,26,23,17,100,87,77,30.59,30.41,4,0,11,0.00
2013-12-26,32,30,28,30,28,24,95,93,87,30.51,30.32,2,0,9,0.00
2013-12-27,37,30,24,34,29,23,97,93,83,30.35,30.02,5,1,11,0.01
2013-12-28,36,28,22,32,24,20,93,84,74,30.45,30.07,5,1,13,0.05
2013-12-29,32,30,23,29,26,21,94,87,79,30.45,30.25,4,2,13,0.00
2013-12-30,36,33,31,34,30,27,96,89,80,30.29,30.03,5,1,12,0.05
2013-12-31,38,36,33,35,33,29,95,89,83,30.23,30.00,6,2,14,0.50